createdAt,value
2023-02-19T00:00:59.273Z,4.28
2023-02-19T00:01:59.829Z,4.28
2023-02-19T00:03:01.655Z,4.28
2023-02-19T00:03:59.975Z,4.28
2023-02-19T00:04:59.778Z,4.28
2023-02-19T00:06:00.284Z,4.26
2023-02-19T00:07:00.438Z,4.26
2023-02-19T00:07:59.520Z,4.26
2023-02-19T00:08:59.668Z,4.26
2023-02-19T00:09:59.480Z,4.28
2023-02-19T00:10:59.802Z,4.28
2023-02-19T00:11:59.612Z,4.29
2023-02-19T00:12:59.337Z,4.28
2023-02-19T00:14:01.069Z,4.28
2023-02-19T00:15:00.365Z,4.29
2023-02-19T00:16:21.511Z,4.28
2023-02-19T00:17:01.306Z,4.29
2023-02-19T00:17:58.944Z,4.29
2023-02-19T00:19:00.038Z,4.28
2023-02-19T00:20:03.609Z,4.32
2023-02-19T00:20:58.937Z,4.32
2023-02-19T00:21:59.638Z,4.32
2023-02-19T00:23:01.534Z,4.33
2023-02-19T00:23:59.883Z,4.33
2023-02-19T00:24:59.361Z,4.34
2023-02-19T00:26:08.919Z,4.34
2023-02-19T00:27:04.409Z,4.34
2023-02-19T00:27:59.277Z,4.33
2023-02-19T00:28:59.186Z,4.32
2023-02-19T00:30:00.326Z,4.33
2023-02-19T00:31:01.801Z,4.34
2023-02-19T00:31:59.614Z,4.33
2023-02-19T00:32:59.833Z,4.33
2023-02-19T00:33:59.962Z,4.33
2023-02-19T00:35:01.089Z,4.34
2023-02-19T00:36:02.281Z,4.34
2023-02-19T00:37:02.311Z,4.33
2023-02-19T00:40:30.577Z,4.33
2023-02-19T00:41:19.050Z,4.32
2023-02-19T00:42:18.819Z,4.33
2023-02-19T00:43:18.737Z,4.33
2023-02-19T00:44:18.716Z,4.32
2023-02-19T00:45:18.721Z,4.29
2023-02-19T00:46:18.712Z,4.32
2023-02-19T00:47:18.757Z,4.33
2023-02-19T00:48:18.628Z,4.34
2023-02-19T00:49:18.750Z,4.32
2023-02-19T00:50:19.464Z,4.33
2023-02-19T00:51:18.570Z,4.34
2023-02-19T00:52:18.655Z,4.34
2023-02-19T00:53:18.579Z,4.34
2023-02-19T00:54:18.595Z,4.34
2023-02-19T00:55:21.510Z,4.34
2023-02-19T00:56:19.242Z,4.34
2023-02-19T00:57:18.516Z,4.34
2023-02-19T00:58:18.894Z,4.34
2023-02-19T00:59:18.550Z,4.34
2023-02-19T01:00:18.538Z,4.33
2023-02-19T01:01:18.591Z,4.33
2023-02-19T01:02:18.540Z,4.33
2023-02-19T01:03:18.472Z,4.33
2023-02-19T01:04:18.442Z,4.32
2023-02-19T01:05:21.535Z,4.33
2023-02-19T01:06:19.702Z,4.32
2023-02-19T01:07:19.541Z,4.32
2023-02-19T01:08:18.858Z,4.32
2023-02-19T01:09:41.328Z,4.32
2023-02-19T01:10:18.343Z,4.33
2023-02-19T01:11:19.308Z,4.32
2023-02-19T01:12:20.468Z,4.32
2023-02-19T01:13:18.233Z,4.33
2023-02-19T01:14:25.008Z,4.33
2023-02-19T01:15:22.688Z,4.33
2023-02-19T01:16:20.169Z,4.32
2023-02-19T01:17:18.361Z,4.33
2023-02-19T01:20:18.320Z,4.33
2023-02-19T01:21:13.233Z,4.29
2023-02-19T01:22:05.188Z,4.32
2023-02-19T01:23:05.444Z,4.29
2023-02-19T01:24:04.734Z,4.29
2023-02-19T01:25:09.313Z,4.29
2023-02-19T01:26:06.005Z,4.29
2023-02-19T01:27:03.702Z,4.29
2023-02-19T01:28:08.154Z,4.29
2023-02-19T01:29:05.686Z,4.29
2023-02-19T01:31:53.345Z,4.26
2023-02-19T01:32:51.571Z,4.26
2023-02-19T01:33:52.566Z,4.26
2023-02-19T01:34:52.148Z,4.28
2023-02-19T01:35:51.490Z,4.26
2023-02-19T01:36:49.178Z,4.26
2023-02-19T01:37:48.947Z,4.26
2023-02-19T01:38:49.400Z,4.26
2023-02-19T01:39:50.815Z,4.26
2023-02-19T01:40:49.861Z,4.26
2023-02-19T01:41:49.332Z,4.28
2023-02-19T01:42:49.743Z,4.25
2023-02-19T01:43:50.305Z,4.26
2023-02-19T01:44:52.077Z,4.26
2023-02-19T01:45:48.843Z,4.25
2023-02-19T01:46:50.234Z,4.25
2023-02-19T01:47:49.834Z,4.25
2023-02-19T01:48:51.721Z,4.25
2023-02-19T01:49:50.180Z,4.26
2023-02-19T01:50:50.404Z,4.26
2023-02-19T01:51:49.153Z,4.26
2023-02-19T01:52:50.656Z,4.26
2023-02-19T01:53:50.191Z,4.26
2023-02-19T01:54:50.946Z,4.28
2023-02-19T01:55:48.902Z,4.26
2023-02-19T01:56:49.743Z,4.28
2023-02-19T01:57:48.607Z,4.25
2023-02-19T01:58:48.505Z,4.25
2023-02-19T01:59:49.336Z,4.25
2023-02-19T02:00:49.421Z,4.24
2023-02-19T02:01:48.687Z,4.22
2023-02-19T02:02:49.061Z,4.25
2023-02-19T02:05:17.737Z,4.26
2023-02-19T02:06:15.298Z,4.25
2023-02-19T02:07:11.000Z,4.25
2023-02-19T02:08:11.953Z,4.25
2023-02-19T02:09:11.410Z,4.25
2023-02-19T02:10:10.717Z,4.26
2023-02-19T02:11:11.091Z,4.26
2023-02-19T02:15:23.286Z,4.26
2023-02-19T02:16:21.359Z,4.25
2023-02-19T02:17:20.047Z,4.25
2023-02-19T02:18:24.316Z,4.24
2023-02-19T02:19:20.502Z,4.19
2023-02-19T02:20:21.545Z,4.10
2023-02-19T02:21:20.236Z,4.06
2023-02-19T02:22:20.174Z,4.03
2023-02-19T02:23:21.661Z,4.01
2023-02-19T02:24:23.920Z,4.00
2023-02-19T02:25:21.183Z,3.98
2023-02-19T02:26:20.815Z,3.98
2023-02-19T02:29:45.674Z,3.98
2023-02-19T02:30:16.760Z,3.96
2023-02-19T02:31:16.726Z,3.96
2023-02-19T02:32:16.147Z,3.96
2023-02-19T02:33:18.731Z,3.94
2023-02-19T02:34:18.642Z,3.96
2023-02-19T02:35:20.835Z,3.92
2023-02-19T02:36:16.757Z,3.90
2023-02-19T02:37:15.734Z,3.90
2023-02-19T02:38:15.683Z,3.88
2023-02-19T02:39:15.698Z,3.85
2023-02-19T02:40:15.760Z,3.79
2023-02-19T02:41:15.701Z,3.75
2023-02-19T02:42:15.762Z,3.70
2023-02-19T02:43:15.583Z,3.68
2023-02-19T02:44:15.689Z,3.67
2023-02-19T02:45:15.588Z,3.67
2023-02-19T02:46:15.636Z,3.65
2023-02-19T02:47:15.631Z,3.64
2023-02-19T02:48:15.509Z,3.62
2023-02-19T02:49:15.630Z,3.61
2023-02-19T02:50:15.607Z,3.60
2023-02-19T02:51:15.522Z,3.60
2023-02-19T02:52:15.426Z,3.60
2023-02-19T02:53:15.523Z,3.60
2023-02-19T02:54:15.439Z,3.58
2023-02-19T02:55:15.439Z,3.58
2023-02-19T02:56:15.548Z,3.58
2023-02-19T02:57:15.460Z,3.54
2023-02-19T02:58:15.395Z,3.54
2023-02-19T02:59:15.570Z,3.57
2023-02-19T03:00:18.490Z,3.54
2023-02-19T03:01:16.927Z,3.53
2023-02-19T03:02:16.782Z,3.53
2023-02-19T03:03:15.596Z,3.52
2023-02-19T03:04:16.989Z,3.50
2023-02-19T03:05:17.600Z,3.50
2023-02-19T03:07:40.161Z,3.49
2023-02-19T03:08:31.544Z,3.47
2023-02-19T03:09:30.472Z,3.46
2023-02-19T03:10:29.477Z,3.46
2023-02-19T03:11:30.336Z,3.44
2023-02-19T03:12:29.496Z,3.43
2023-02-19T03:13:29.726Z,3.40
2023-02-19T03:14:29.397Z,3.39
2023-02-19T03:15:29.448Z,3.39
2023-02-19T03:16:29.392Z,3.39
2023-02-19T03:17:29.325Z,3.36
2023-02-19T03:18:29.327Z,3.34
2023-02-19T03:19:29.252Z,3.34
2023-02-19T03:20:29.377Z,3.33
2023-02-19T03:21:29.267Z,3.31
2023-02-19T03:22:29.292Z,3.30
2023-02-19T03:23:29.147Z,3.31
2023-02-19T03:24:29.176Z,3.30
2023-02-19T03:25:29.278Z,3.31
2023-02-19T03:26:29.210Z,3.28
2023-02-19T03:27:29.198Z,3.27
2023-02-19T03:28:29.123Z,3.27
2023-02-19T03:29:29.206Z,3.27
2023-02-19T03:30:29.113Z,3.28
2023-02-19T03:31:29.179Z,3.28
2023-02-19T03:32:29.126Z,3.27
2023-02-19T03:33:29.033Z,3.27
2023-02-19T03:34:29.179Z,3.28
2023-02-19T03:35:29.070Z,3.30
2023-02-19T03:36:29.044Z,3.28
2023-02-19T03:37:30.038Z,3.28
2023-02-19T03:38:29.382Z,3.30
2023-02-19T03:39:29.808Z,3.28
2023-02-19T03:40:29.904Z,3.28
2023-02-19T03:41:30.231Z,3.28
2023-02-19T03:42:30.405Z,3.28
2023-02-19T03:43:50.763Z,3.30
2023-02-19T03:44:29.663Z,3.28
2023-02-19T03:45:35.454Z,3.28
2023-02-19T03:46:29.801Z,3.30
2023-02-19T03:47:29.203Z,3.30
2023-02-19T03:48:29.212Z,3.28
2023-02-19T03:49:30.847Z,3.28
2023-02-19T03:50:32.044Z,3.28
2023-02-19T03:51:30.675Z,3.28
2023-02-19T03:52:28.938Z,3.28
2023-02-19T03:53:29.397Z,3.28
2023-02-19T03:54:31.415Z,3.27
2023-02-19T03:55:29.203Z,3.30
2023-02-19T03:56:29.265Z,3.30
2023-02-19T03:57:31.921Z,3.30
2023-02-19T03:58:30.003Z,3.30
2023-02-19T03:59:30.004Z,3.30
2023-02-19T04:00:29.045Z,3.28
2023-02-19T04:01:31.671Z,3.27
2023-02-19T04:02:30.582Z,3.28
2023-02-19T04:03:29.875Z,3.28
2023-02-19T04:04:30.768Z,3.28
2023-02-19T04:05:31.110Z,3.27
2023-02-19T04:06:30.538Z,3.30
2023-02-19T04:07:29.239Z,3.30
2023-02-19T04:08:29.169Z,3.28
2023-02-19T04:09:30.168Z,3.27
2023-02-19T04:10:30.549Z,3.27
2023-02-19T04:11:28.909Z,3.27
2023-02-19T04:12:29.189Z,3.27
2023-02-19T04:13:30.359Z,3.25
2023-02-19T04:14:29.651Z,3.23
2023-02-19T04:15:28.942Z,3.25
2023-02-19T04:16:31.014Z,3.27
2023-02-19T04:17:30.965Z,3.25
2023-02-19T04:18:29.678Z,3.24
2023-02-19T04:19:31.645Z,3.24
2023-02-19T04:20:30.898Z,3.23
2023-02-19T04:21:30.885Z,3.24
2023-02-19T04:22:31.578Z,3.24
2023-02-19T04:23:29.615Z,3.21
2023-02-19T04:24:30.283Z,3.23
2023-02-19T04:25:28.600Z,3.20
2023-02-19T04:26:29.510Z,3.20
2023-02-19T04:27:29.157Z,3.18
2023-02-19T04:28:29.498Z,3.16
2023-02-19T04:29:30.554Z,3.16
2023-02-19T04:30:29.304Z,3.13
2023-02-19T04:31:29.852Z,3.12
2023-02-19T04:32:28.401Z,3.10
2023-02-19T04:33:30.056Z,3.09
2023-02-19T04:34:29.146Z,3.07
2023-02-19T04:35:29.084Z,3.06
2023-02-19T04:36:28.426Z,3.05
2023-02-19T04:37:29.478Z,3.05
2023-02-19T04:38:31.099Z,3.03
2023-02-19T04:39:28.713Z,3.02
2023-02-19T04:40:29.353Z,3.03
2023-02-19T04:41:29.135Z,3.02
2023-02-19T04:42:29.344Z,3.00
2023-02-19T04:43:29.924Z,3.00
2023-02-19T04:44:29.915Z,3.02
2023-02-19T04:45:28.811Z,3.03
2023-02-19T04:46:28.472Z,3.03
2023-02-19T04:47:28.413Z,3.05
2023-02-19T04:48:29.617Z,3.05
2023-02-19T04:49:29.733Z,3.06
2023-02-19T04:50:29.161Z,3.07
2023-02-19T04:51:28.926Z,3.09
2023-02-19T04:52:29.002Z,3.09
2023-02-19T04:53:29.496Z,3.12
2023-02-19T04:54:29.409Z,3.13
2023-02-19T04:55:29.129Z,3.15
2023-02-19T04:56:28.253Z,3.18
2023-02-19T04:57:30.185Z,3.20
2023-02-19T04:58:29.008Z,3.21
2023-02-19T04:59:28.575Z,3.21
2023-02-19T05:00:30.289Z,3.20
2023-02-19T05:02:01.936Z,3.21
2023-02-19T05:02:30.751Z,3.21
2023-02-19T05:03:30.676Z,3.21
2023-02-19T05:04:28.708Z,3.20
2023-02-19T05:05:28.615Z,3.18
2023-02-19T05:06:29.107Z,3.18
2023-02-19T05:07:30.854Z,3.15
2023-02-19T05:08:30.171Z,3.13
2023-02-19T05:09:29.447Z,3.10
2023-02-19T05:10:29.029Z,3.10
2023-02-19T05:11:29.675Z,3.07
2023-02-19T05:12:28.396Z,3.07
2023-02-19T05:13:28.511Z,3.06
2023-02-19T05:14:32.271Z,3.07
2023-02-19T05:15:29.659Z,3.06
2023-02-19T05:16:28.706Z,3.06
2023-02-19T05:17:31.096Z,3.05
2023-02-19T05:18:33.594Z,3.05
2023-02-19T05:19:32.275Z,3.03
2023-02-19T05:20:27.855Z,3.02
2023-02-19T05:21:30.529Z,3.02
2023-02-19T05:22:28.474Z,3.00
2023-02-19T05:23:29.720Z,2.97
2023-02-19T05:24:35.629Z,2.94
2023-02-19T05:25:28.365Z,2.94
2023-02-19T05:26:29.518Z,2.91
2023-02-19T05:27:28.512Z,2.87
2023-02-19T05:28:29.587Z,2.82
2023-02-19T05:29:29.134Z,2.81
2023-02-19T05:30:30.820Z,2.77
2023-02-19T05:31:29.699Z,2.73
2023-02-19T05:32:30.982Z,2.70
2023-02-19T05:33:30.374Z,2.67
2023-02-19T05:34:28.620Z,2.66
2023-02-19T05:35:28.192Z,2.63
2023-02-19T05:36:28.704Z,2.59
2023-02-19T05:37:28.891Z,2.55
2023-02-19T05:38:29.617Z,2.51
2023-02-19T05:39:27.766Z,2.49
2023-02-19T05:40:29.885Z,2.44
2023-02-19T05:41:28.869Z,2.38
2023-02-19T05:42:27.967Z,2.34
2023-02-19T05:43:27.785Z,2.28
2023-02-19T05:44:31.994Z,2.23
2023-02-19T05:45:29.231Z,2.19
2023-02-19T05:46:27.700Z,2.15
2023-02-19T05:47:28.570Z,2.13
2023-02-19T05:48:28.942Z,2.09
2023-02-19T05:49:27.844Z,2.01
2023-02-19T05:50:28.673Z,1.99
2023-02-19T05:51:27.784Z,1.91
2023-02-19T05:52:32.266Z,1.87
2023-02-19T05:53:28.476Z,1.82
2023-02-19T05:54:28.682Z,1.78
2023-02-19T05:55:28.008Z,1.72
2023-02-19T05:56:28.712Z,1.68
2023-02-19T05:57:30.454Z,1.60
2023-02-19T05:58:28.651Z,1.54
2023-02-19T05:59:28.372Z,1.46
2023-02-19T06:00:28.508Z,1.43
2023-02-19T06:01:30.766Z,1.39
2023-02-19T06:02:27.879Z,1.37
2023-02-19T06:03:27.647Z,1.36
2023-02-19T06:04:27.374Z,1.34
2023-02-19T06:05:28.377Z,1.32
2023-02-19T06:06:29.216Z,1.26
2023-02-19T06:07:27.570Z,1.21
2023-02-19T06:08:28.770Z,1.18
2023-02-19T06:09:30.139Z,1.14
2023-02-19T06:10:28.531Z,1.08
2023-02-19T06:11:27.467Z,1.06
2023-02-19T06:12:27.593Z,1.06
2023-02-19T06:13:28.302Z,1.04
2023-02-19T06:14:27.396Z,1.06
2023-02-19T06:15:28.535Z,1.08
2023-02-19T06:16:28.317Z,1.10
2023-02-19T06:17:27.530Z,1.14
2023-02-19T06:18:28.238Z,1.16
2023-02-19T06:19:28.489Z,1.18
2023-02-19T06:20:28.168Z,1.21
2023-02-19T06:21:28.912Z,1.18
2023-02-19T06:22:28.149Z,1.16
2023-02-19T06:23:27.673Z,1.16
2023-02-19T06:24:27.765Z,1.16
2023-02-19T06:25:27.622Z,1.15
2023-02-19T06:26:27.950Z,1.14
2023-02-19T06:27:27.986Z,1.14
2023-02-19T06:28:29.565Z,1.12
2023-02-19T06:29:35.545Z,1.10
2023-02-19T06:30:27.910Z,1.10
2023-02-19T06:31:29.788Z,1.08
2023-02-19T06:34:27.482Z,1.08
2023-02-19T06:35:14.753Z,1.08
2023-02-19T06:36:12.604Z,1.08
2023-02-19T06:37:14.898Z,1.08
2023-02-19T06:38:14.451Z,1.10
2023-02-19T06:39:13.521Z,1.12
2023-02-19T06:40:13.263Z,1.14
2023-02-19T06:41:12.819Z,1.18
2023-02-19T06:42:12.352Z,1.22
2023-02-19T06:43:12.258Z,1.24
2023-02-19T06:44:12.388Z,1.28
2023-02-19T06:45:12.366Z,1.33
2023-02-19T06:46:12.656Z,1.39
2023-02-19T06:47:12.271Z,1.43
2023-02-19T06:48:12.293Z,1.50
2023-02-19T06:49:15.202Z,1.52
2023-02-19T06:50:12.225Z,1.55
2023-02-19T06:51:15.734Z,1.58
2023-02-19T06:52:12.236Z,1.60
2023-02-19T06:53:12.310Z,1.58
2023-02-19T06:54:12.151Z,1.61
2023-02-19T06:55:12.135Z,1.65
2023-02-19T06:56:12.175Z,1.69
2023-02-19T06:57:12.242Z,1.72
2023-02-19T06:58:12.072Z,1.78
2023-02-19T06:59:12.892Z,1.79
2023-02-19T07:00:12.158Z,1.82
2023-02-19T07:01:12.593Z,1.83
2023-02-19T07:02:12.100Z,1.85
2023-02-19T07:03:12.098Z,1.89
2023-02-19T07:04:12.154Z,1.89
2023-02-19T07:05:11.986Z,1.89
2023-02-19T07:06:12.082Z,1.90
2023-02-19T07:07:12.449Z,1.93
2023-02-19T07:08:11.926Z,1.94
2023-02-19T07:09:12.031Z,1.93
2023-02-19T07:10:11.946Z,1.93
2023-02-19T07:11:12.252Z,1.97
2023-02-19T07:12:12.682Z,1.94
2023-02-19T07:13:11.948Z,1.97
2023-02-19T07:14:11.961Z,1.98
2023-02-19T07:15:11.876Z,1.99
2023-02-19T07:16:12.024Z,2.01
2023-02-19T07:17:11.970Z,2.04
2023-02-19T07:18:12.000Z,2.06
2023-02-19T07:19:12.152Z,2.08
2023-02-19T07:20:11.798Z,2.09
2023-02-19T07:21:12.129Z,2.10
2023-02-19T07:22:12.224Z,2.13
2023-02-19T07:23:11.715Z,2.16
2023-02-19T07:24:11.811Z,2.17
2023-02-19T07:25:11.827Z,2.22
2023-02-19T07:26:11.735Z,2.26
2023-02-19T07:27:11.745Z,2.28
2023-02-19T07:28:12.169Z,2.33
2023-02-19T07:29:11.751Z,2.34
2023-02-19T07:30:11.692Z,2.37
2023-02-19T07:31:12.073Z,2.41
2023-02-19T07:32:11.826Z,2.44
2023-02-19T07:33:11.694Z,2.45
2023-02-19T07:34:11.674Z,2.48
2023-02-19T07:35:11.574Z,2.49
2023-02-19T07:36:11.607Z,2.51
2023-02-19T07:37:11.626Z,2.55
2023-02-19T07:38:11.743Z,2.58
2023-02-19T07:39:11.502Z,2.59
2023-02-19T07:40:13.363Z,2.66
2023-02-19T07:41:11.866Z,2.66
2023-02-19T07:42:11.549Z,2.71
2023-02-19T07:43:11.478Z,2.74
2023-02-19T07:44:11.443Z,2.77
2023-02-19T07:45:11.479Z,2.82
2023-02-19T07:46:12.010Z,2.85
2023-02-19T07:47:11.460Z,2.88
2023-02-19T07:48:11.493Z,2.91
2023-02-19T07:49:11.476Z,2.95
2023-02-19T07:50:14.099Z,3.02
2023-02-19T07:51:11.637Z,3.05
2023-02-19T07:52:11.391Z,3.10
2023-02-19T07:53:11.314Z,3.18
2023-02-19T07:54:11.432Z,3.23
2023-02-19T07:55:11.462Z,3.30
2023-02-19T07:56:11.771Z,3.36
2023-02-19T07:57:11.962Z,3.42
2023-02-19T07:58:11.338Z,3.49
2023-02-19T07:59:11.350Z,3.53
2023-02-19T08:00:11.329Z,3.58
2023-02-19T08:01:11.622Z,3.61
2023-02-19T08:02:11.264Z,3.64
2023-02-19T08:03:11.272Z,3.68
2023-02-19T08:04:11.202Z,3.70
2023-02-19T08:05:11.184Z,3.70
2023-02-19T08:06:11.349Z,3.70
2023-02-19T08:07:11.218Z,3.71
2023-02-19T08:08:12.464Z,3.70
2023-02-19T08:09:12.445Z,3.67
2023-02-19T08:10:11.335Z,3.65
2023-02-19T08:11:11.347Z,3.62
2023-02-19T08:12:11.443Z,3.60
2023-02-19T08:13:11.254Z,3.53
2023-02-19T08:14:11.085Z,3.49
2023-02-19T08:15:11.157Z,3.46
2023-02-19T08:16:18.658Z,3.43
2023-02-19T08:17:12.057Z,3.40
2023-02-19T08:18:12.909Z,3.39
2023-02-19T08:19:11.002Z,3.33
2023-02-19T08:20:12.973Z,3.31
2023-02-19T08:21:11.350Z,3.33
2023-02-19T08:22:10.922Z,3.33
2023-02-19T08:23:10.844Z,3.33
2023-02-19T08:24:10.914Z,3.39
2023-02-19T08:25:10.893Z,3.39
2023-02-19T08:26:10.860Z,3.39
2023-02-19T08:27:12.479Z,3.40
2023-02-19T08:28:11.233Z,3.42
2023-02-19T08:29:10.863Z,3.43
2023-02-19T08:30:11.097Z,3.44
2023-02-19T08:31:11.213Z,3.47
2023-02-19T08:32:10.894Z,3.50
2023-02-19T08:33:10.884Z,3.52
2023-02-19T08:34:10.867Z,3.53
2023-02-19T08:35:10.822Z,3.58
2023-02-19T08:36:10.819Z,3.58
2023-02-19T08:37:10.803Z,3.60
2023-02-19T08:38:10.890Z,3.60
2023-02-19T08:39:11.231Z,3.61
2023-02-19T08:40:10.779Z,3.62
2023-02-19T08:41:12.468Z,3.64
2023-02-19T08:42:13.297Z,3.65
2023-02-19T08:43:13.108Z,3.70
2023-02-19T08:44:11.633Z,3.72
2023-02-19T08:45:10.887Z,3.75
2023-02-19T08:46:10.874Z,3.76
2023-02-19T08:47:11.868Z,3.79
2023-02-19T08:48:12.599Z,3.82
2023-02-19T08:49:10.845Z,3.86
2023-02-19T08:50:11.381Z,3.86
2023-02-19T08:51:11.315Z,3.88
2023-02-19T08:52:10.831Z,3.89
2023-02-19T08:53:11.434Z,3.92
2023-02-19T08:54:10.802Z,3.96
2023-02-19T08:55:11.463Z,3.96
2023-02-19T08:56:10.785Z,3.97
2023-02-19T08:57:11.634Z,4.00
2023-02-19T08:58:10.904Z,4.01
2023-02-19T08:59:10.945Z,4.01
2023-02-19T09:00:10.750Z,4.03
2023-02-19T09:01:12.590Z,4.04
2023-02-19T09:02:12.203Z,4.06
2023-02-19T09:03:11.792Z,4.04
2023-02-19T09:04:12.558Z,4.10
2023-02-19T09:05:10.529Z,4.08
2023-02-19T09:06:11.510Z,4.08
2023-02-19T09:07:11.436Z,4.12
2023-02-19T09:08:12.478Z,4.12
2023-02-19T09:09:11.418Z,4.12
2023-02-19T09:10:12.953Z,4.14
2023-02-19T09:11:11.447Z,4.16
2023-02-19T09:12:11.398Z,4.19
2023-02-19T09:13:11.303Z,4.22
2023-02-19T09:14:12.285Z,4.24
2023-02-19T09:15:10.909Z,4.26
2023-02-19T09:16:16.164Z,4.28
2023-02-19T09:17:11.120Z,4.28
2023-02-19T09:18:10.289Z,4.29
2023-02-19T09:19:10.386Z,4.34
2023-02-19T09:20:11.701Z,4.36
2023-02-19T09:21:11.031Z,4.40
2023-02-19T09:22:10.960Z,4.42
2023-02-19T09:23:11.840Z,4.44
2023-02-19T09:24:11.329Z,4.47
2023-02-19T09:25:10.428Z,4.52
2023-02-19T09:26:12.445Z,4.62
2023-02-19T09:27:12.283Z,4.70
2023-02-19T09:28:11.015Z,4.73
2023-02-19T09:29:10.912Z,4.75
2023-02-19T09:30:11.893Z,4.80
2023-02-19T09:31:10.843Z,4.83
2023-02-19T09:32:11.145Z,4.83
2023-02-19T09:33:10.911Z,4.83
2023-02-19T09:34:16.697Z,4.84
2023-02-19T09:35:11.007Z,4.89
2023-02-19T09:36:12.986Z,4.94
2023-02-19T09:37:11.047Z,4.94
2023-02-19T09:38:10.191Z,4.94
2023-02-19T09:39:10.422Z,4.99
2023-02-19T09:40:11.911Z,5.07
2023-02-19T09:41:11.841Z,5.10
2023-02-19T09:42:11.245Z,5.07
2023-02-19T09:43:10.964Z,5.04
2023-02-19T09:44:10.368Z,5.02
2023-02-19T09:45:12.446Z,5.07
2023-02-19T09:46:12.850Z,5.13
2023-02-19T09:47:10.726Z,5.16
2023-02-19T09:48:11.399Z,5.17
2023-02-19T09:49:11.042Z,5.30
2023-02-19T09:50:11.048Z,5.35
2023-02-19T09:51:10.435Z,5.35
2023-02-19T09:52:11.720Z,5.37
2023-02-19T09:53:11.077Z,5.35
2023-02-19T09:54:13.441Z,5.40
2023-02-19T09:55:11.737Z,5.38
2023-02-19T09:56:13.426Z,5.34
2023-02-19T09:57:11.256Z,5.30
2023-02-19T09:58:09.970Z,5.28
2023-02-19T09:59:10.227Z,5.32
2023-02-19T10:00:10.763Z,5.34
2023-02-19T10:01:12.272Z,5.32
2023-02-19T10:02:10.463Z,5.31
2023-02-19T10:03:11.951Z,5.32
2023-02-19T10:04:11.953Z,5.34
2023-02-19T10:05:10.253Z,5.37
2023-02-19T10:06:11.447Z,5.41
2023-02-19T10:07:12.328Z,5.45
2023-02-19T10:08:10.423Z,5.52
2023-02-19T10:09:10.884Z,5.60
2023-02-19T10:10:09.489Z,5.67
2023-02-19T10:11:09.986Z,5.70
2023-02-19T10:12:10.489Z,5.70
2023-02-19T10:13:12.190Z,5.68
2023-02-19T10:14:10.197Z,5.67
2023-02-19T10:15:09.619Z,5.67
2023-02-19T10:16:10.723Z,5.68
2023-02-19T10:17:10.932Z,5.66
2023-02-19T10:18:11.497Z,5.66
2023-02-19T10:19:09.609Z,5.66
2023-02-19T10:20:10.185Z,5.68
2023-02-19T10:21:09.787Z,5.73
2023-02-19T10:22:11.024Z,5.68
2023-02-19T10:23:14.822Z,5.68
2023-02-19T10:24:10.434Z,5.67
2023-02-19T10:25:11.155Z,5.67
2023-02-19T10:26:09.444Z,5.64
2023-02-19T10:27:11.058Z,5.64
2023-02-19T10:28:09.561Z,5.64
2023-02-19T10:29:13.423Z,5.66
2023-02-19T10:30:09.447Z,5.71
2023-02-19T10:31:10.549Z,5.77
2023-02-19T10:32:09.840Z,5.77
2023-02-19T10:33:10.342Z,5.73
2023-02-19T10:34:10.011Z,5.73
2023-02-19T10:35:10.702Z,5.71
2023-02-19T10:36:10.883Z,5.71
2023-02-19T10:37:30.273Z,5.71
2023-02-19T10:38:09.513Z,5.71
2023-02-19T10:39:09.139Z,5.74
2023-02-19T10:40:10.132Z,5.81
2023-02-19T10:41:09.947Z,5.86
2023-02-19T10:42:10.026Z,5.95
2023-02-19T10:43:09.912Z,6.06
2023-02-19T10:44:10.708Z,6.13
2023-02-19T10:45:09.188Z,6.19
2023-02-19T10:46:11.218Z,6.30
2023-02-19T10:47:10.057Z,6.38
2023-02-19T10:48:09.111Z,6.46
2023-02-19T10:49:11.317Z,6.44
2023-02-19T10:50:12.544Z,6.46
2023-02-19T10:51:09.968Z,6.46
2023-02-19T10:52:11.774Z,6.38
2023-02-19T10:53:11.142Z,6.29
2023-02-19T10:54:09.780Z,6.25
2023-02-19T10:55:09.004Z,6.22
2023-02-19T10:56:10.667Z,6.18
2023-02-19T10:57:09.448Z,6.14
2023-02-19T10:58:12.788Z,6.18
2023-02-19T10:59:10.184Z,6.16
2023-02-19T11:00:09.109Z,6.11
2023-02-19T11:01:09.535Z,6.04
2023-02-19T11:02:10.152Z,5.96
2023-02-19T11:03:08.806Z,5.92
2023-02-19T11:04:09.413Z,5.93
2023-02-19T11:05:10.702Z,5.95
2023-02-19T11:06:11.072Z,5.98
2023-02-19T11:07:11.233Z,6.00
2023-02-19T11:08:09.218Z,6.04
2023-02-19T11:09:08.770Z,6.10
2023-02-19T11:10:10.767Z,6.18
2023-02-19T11:11:10.992Z,6.21
2023-02-19T11:12:09.807Z,6.29
2023-02-19T11:13:09.125Z,6.35
2023-02-19T11:14:10.344Z,6.36
2023-02-19T11:15:10.701Z,6.33
2023-02-19T11:16:10.738Z,6.26
2023-02-19T11:17:10.135Z,6.18
2023-02-19T11:18:08.794Z,6.14
2023-02-19T11:19:09.946Z,6.19
2023-02-19T11:20:08.972Z,6.18
2023-02-19T11:21:08.679Z,6.16
2023-02-19T11:22:09.699Z,6.16
2023-02-19T11:23:09.573Z,6.22
2023-02-19T11:24:09.495Z,6.22
2023-02-19T11:25:09.656Z,6.26
2023-02-19T11:26:11.301Z,6.32
2023-02-19T11:27:09.014Z,6.36
2023-02-19T11:28:09.256Z,6.38
2023-02-19T11:29:09.879Z,6.43
2023-02-19T11:30:09.606Z,6.43
2023-02-19T11:31:09.612Z,6.44
2023-02-19T11:32:09.370Z,6.48
2023-02-19T11:33:08.993Z,6.50
2023-02-19T11:34:08.975Z,6.51
2023-02-19T11:35:08.495Z,6.54
2023-02-19T11:36:08.715Z,6.56
2023-02-19T11:37:08.990Z,6.56
2023-02-19T11:38:10.991Z,6.56
2023-02-19T11:39:09.654Z,6.58
2023-02-19T11:40:09.802Z,6.61
2023-02-19T11:41:09.045Z,6.63
2023-02-19T11:42:09.352Z,6.68
2023-02-19T11:43:08.762Z,6.72
2023-02-19T11:44:08.449Z,6.73
2023-02-19T11:45:09.434Z,6.83
2023-02-19T11:46:08.384Z,6.89
2023-02-19T11:47:08.805Z,6.91
2023-02-19T11:48:08.602Z,6.94
2023-02-19T11:49:10.018Z,6.99
2023-02-19T11:50:08.691Z,7.02
2023-02-19T11:51:09.589Z,7.09
2023-02-19T11:52:08.542Z,7.17
2023-02-19T11:53:09.544Z,7.26
2023-02-19T11:54:09.099Z,7.37
2023-02-19T11:55:08.907Z,7.49
2023-02-19T11:56:08.729Z,7.55
2023-02-19T11:57:09.712Z,7.60
2023-02-19T11:58:09.258Z,7.62
2023-02-19T11:59:09.037Z,7.71
2023-02-19T12:00:08.463Z,7.78
2023-02-19T12:01:08.580Z,7.89
2023-02-19T12:02:09.486Z,7.92
2023-02-19T12:03:09.442Z,7.99
2023-02-19T12:04:09.270Z,8.11
2023-02-19T12:05:09.211Z,8.12
2023-02-19T12:06:09.421Z,8.21
2023-02-19T12:07:08.528Z,8.32
2023-02-19T12:08:08.465Z,8.53
2023-02-19T12:09:08.116Z,8.73
2023-02-19T12:10:07.951Z,8.99
2023-02-19T12:11:09.562Z,9.34
2023-02-19T12:12:07.947Z,9.56
2023-02-19T12:13:08.645Z,9.88
2023-02-19T12:14:08.471Z,10.36
2023-02-19T12:15:09.208Z,10.77
2023-02-19T12:16:08.184Z,10.95
2023-02-19T12:17:07.750Z,10.88
2023-02-19T12:18:09.164Z,10.96
2023-02-19T12:19:09.790Z,11.10
2023-02-19T12:20:08.664Z,11.07
2023-02-19T12:21:08.593Z,10.81
2023-02-19T12:22:07.859Z,10.51
2023-02-19T12:23:09.172Z,10.56
2023-02-19T12:24:07.954Z,10.52
2023-02-19T12:25:08.371Z,10.66
2023-02-19T12:26:09.105Z,10.91
2023-02-19T12:27:08.300Z,10.92
2023-02-19T12:28:09.643Z,11.02
2023-02-19T12:29:07.761Z,11.21
2023-02-19T12:30:08.354Z,11.07
2023-02-19T12:31:08.000Z,10.95
2023-02-19T12:32:08.066Z,10.83
2023-02-19T12:33:09.397Z,10.99
2023-02-19T12:34:08.100Z,11.16
2023-02-19T12:35:07.925Z,11.29
2023-02-19T12:36:07.827Z,11.56
2023-02-19T12:37:07.602Z,11.59
2023-02-19T12:38:07.725Z,11.54
2023-02-19T12:39:07.645Z,11.57
2023-02-19T12:40:07.447Z,11.44
2023-02-19T12:41:07.662Z,11.46
2023-02-19T12:42:08.647Z,11.50
2023-02-19T12:43:07.622Z,11.36
2023-02-19T12:44:08.628Z,11.20
2023-02-19T12:45:07.607Z,10.80
2023-02-19T12:46:07.638Z,10.74
2023-02-19T12:47:09.028Z,10.99
2023-02-19T12:48:10.339Z,11.13
2023-02-19T12:49:08.623Z,11.24
2023-02-19T12:50:11.162Z,11.32
2023-02-19T12:51:08.612Z,11.34
2023-02-19T12:52:07.645Z,11.47
2023-02-19T12:53:17.150Z,11.61
2023-02-19T12:54:14.500Z,11.68
2023-02-19T12:55:09.816Z,11.72
2023-02-19T12:56:07.441Z,11.83
2023-02-19T12:57:08.003Z,12.30
2023-02-19T12:58:10.369Z,12.75
2023-02-19T12:59:07.511Z,13.11
2023-02-19T13:00:07.387Z,13.18
2023-02-19T13:01:07.858Z,13.07
2023-02-19T13:02:07.837Z,12.08
2023-02-19T13:03:07.500Z,11.72
2023-02-19T13:04:08.353Z,11.72
2023-02-19T13:05:08.841Z,11.83
2023-02-19T13:06:09.698Z,11.09
2023-02-19T13:07:07.592Z,10.43
2023-02-19T13:08:07.792Z,10.09
2023-02-19T13:09:07.604Z,10.71
2023-02-19T13:10:11.157Z,10.74
2023-02-19T13:11:07.801Z,10.47
2023-02-19T13:12:09.214Z,10.74
2023-02-19T13:13:07.541Z,10.46
2023-02-19T13:14:07.385Z,10.43
2023-02-19T13:15:08.243Z,10.15
2023-02-19T13:16:07.178Z,9.70
2023-02-19T13:17:07.381Z,9.82
2023-02-19T13:18:07.159Z,10.24
2023-02-19T13:19:08.864Z,10.46
2023-02-19T13:20:07.272Z,10.92
2023-02-19T13:21:12.033Z,11.24
2023-02-19T13:22:08.430Z,11.39
2023-02-19T13:23:07.177Z,11.49
2023-02-19T13:24:07.190Z,11.65
2023-02-19T13:25:07.965Z,11.86
2023-02-19T13:26:07.934Z,12.20
2023-02-19T13:28:25.858Z,12.67
2023-02-19T13:29:20.077Z,12.89
2023-02-19T13:30:20.685Z,12.66
2023-02-19T13:31:20.830Z,12.48
2023-02-19T13:32:21.312Z,12.71